91NC weather

Alamance Regnl Medical Center Heliport
Burlington, North Carolina, United States

Public forecast

Using degrees Fahrenheit for public forecast. Weather courtesy of forecast.io.

METAR (pilot weather report)

Closest report is Burlington Alamance Regional Airport, 1.7 nm (3.1 km) ESE. Retrieved 2019/09/22 05:54 UTC (52 minutes ago):

KBUY 220554Z AUTO 00000KT 10SM CLR 19/16 A3023 RMK AO2 SLP228 T01890156 10272 20183 58001

TAF (pilot weather forecast)

Closest forecast is Piedmont Triad International Airport, 21.1 nm (39.1 km) W. Retrieved 2019/09/22 06:36 UTC (10 minutes ago):

TAF KGSO 220534Z 2206/2306 21004KT P6SM FEW060 FEW100